createdAt,value
2022-10-19T00:02:17.515Z,102968.31
2022-10-19T00:04:44.501Z,102966.56
2022-10-19T00:07:10.876Z,102961.50
2022-10-19T00:09:37.245Z,102967.75
2022-10-19T00:12:03.662Z,102962.63
2022-10-19T00:14:30.011Z,102962.91
2022-10-19T00:16:57.986Z,102956.97
2022-10-19T00:19:26.996Z,102958.13
2022-10-19T00:21:53.432Z,102961.13
2022-10-19T00:24:20.789Z,102954.16
2022-10-19T00:26:47.174Z,102952.63
2022-10-19T00:29:14.552Z,102952.63
2022-10-19T00:31:41.775Z,102941.41
2022-10-19T00:34:08.237Z,102940.72
2022-10-19T00:36:38.597Z,102941.84
2022-10-19T00:39:07.037Z,102943.88
2022-10-19T00:41:36.123Z,102941.63
2022-10-19T00:44:27.097Z,102941.75
2022-10-19T00:46:53.701Z,102941.19
2022-10-19T00:49:26.712Z,102943.19
2022-10-19T00:51:56.101Z,102945.88
2022-10-19T00:54:23.656Z,102952.28
2022-10-19T00:56:53.110Z,102940.78
2022-10-19T00:59:22.047Z,102944.59
2022-10-19T01:01:49.381Z,102940.38
2022-10-19T01:04:15.858Z,102941.78
2022-10-19T01:06:42.386Z,102938.38
2022-10-19T01:09:08.896Z,102931.59
2022-10-19T01:12:06.293Z,102937.97
2022-10-19T01:14:55.201Z,102938.25
2022-10-19T01:17:40.502Z,102939.25
2022-10-19T01:20:31.425Z,102937.13
2022-10-19T01:24:04.606Z,102931.34
2022-10-19T01:26:53.976Z,102934.47
2022-10-19T01:29:44.793Z,102938.84
2022-10-19T01:32:21.719Z,102942.53
2022-10-19T01:34:57.960Z,102928.34
2022-10-19T01:37:34.219Z,102919.69
2022-10-19T01:40:12.449Z,102926.66
2022-10-19T01:45:40.768Z,102924.25
2022-10-19T01:48:22.130Z,102929.06
2022-10-19T01:51:01.342Z,102927.53
2022-10-19T01:53:32.961Z,102922.13
2022-10-19T01:56:03.072Z,102920.84
2022-10-19T01:58:35.056Z,102926.53
2022-10-19T02:01:06.912Z,102923.97
2022-10-19T02:03:35.039Z,102921.41
2022-10-19T02:06:05.990Z,102919.56
2022-10-19T02:08:40.403Z,102922.25
2022-10-19T02:11:06.920Z,102923.13
2022-10-19T02:13:33.978Z,102911.50
2022-10-19T02:16:06.521Z,102907.53
2022-10-19T02:18:42.306Z,102914.63
2022-10-19T02:21:09.401Z,102907.53
2022-10-19T02:23:36.374Z,102905.81
2022-10-19T02:26:03.539Z,102904.28
2022-10-19T02:28:30.395Z,102901.16
2022-10-19T02:30:58.181Z,102900.59
2022-10-19T02:33:24.878Z,102904.44
2022-10-19T02:35:51.244Z,102908.09
2022-10-19T02:38:21.550Z,102909.09
2022-10-19T02:40:56.921Z,102905.72
2022-10-19T02:43:26.706Z,102904.97
2022-10-19T02:46:22.254Z,102898.06
2022-10-19T02:48:51.617Z,102889.38
2022-10-19T02:51:30.276Z,102898.56
2022-10-19T02:53:57.392Z,102893.47
2022-10-19T02:56:25.549Z,102891.78
2022-10-19T02:58:51.972Z,102881.28
2022-10-19T03:01:18.391Z,102884.28
2022-10-19T03:03:44.817Z,102895.16
2022-10-19T03:06:11.162Z,102892.47
2022-10-19T03:08:37.537Z,102899.00
2022-10-19T03:11:04.408Z,102894.75
2022-10-19T03:13:30.787Z,102900.41
2022-10-19T03:15:57.136Z,102902.25
2022-10-19T03:18:23.533Z,102891.63
2022-10-19T03:20:49.890Z,102878.31
2022-10-19T03:23:16.255Z,102881.31
2022-10-19T03:25:42.713Z,102880.84
2022-10-19T03:28:09.050Z,102881.69
2022-10-19T03:30:35.412Z,102881.00
2022-10-19T03:33:01.751Z,102883.84
2022-10-19T03:35:28.089Z,102879.41
2022-10-19T03:37:54.446Z,102875.78
2022-10-19T03:40:20.830Z,102874.88
2022-10-19T03:42:47.189Z,102878.56
2022-10-19T03:45:13.558Z,102874.19
2022-10-19T03:47:39.925Z,102878.84
2022-10-19T03:50:06.629Z,102876.16
2022-10-19T03:52:32.969Z,102871.66
2022-10-19T03:54:59.398Z,102875.47
2022-10-19T03:57:25.758Z,102859.44
2022-10-19T03:59:52.109Z,102864.28
2022-10-19T04:02:18.479Z,102862.72
2022-10-19T04:04:44.842Z,102867.34
2022-10-19T04:07:11.216Z,102867.50
2022-10-19T04:09:37.546Z,102862.41
2022-10-19T04:12:04.107Z,102866.94
2022-10-19T04:14:33.291Z,102868.78
2022-10-19T04:17:05.497Z,102875.00
2022-10-19T04:19:31.870Z,102877.97
2022-10-19T04:21:58.607Z,102873.72
2022-10-19T04:24:25.144Z,102879.38
2022-10-19T04:26:53.953Z,102869.72
2022-10-19T04:29:24.966Z,102876.94
2022-10-19T04:31:54.317Z,102870.72
2022-10-19T04:34:20.669Z,102874.56
2022-10-19T04:36:47.011Z,102869.03
2022-10-19T04:39:13.807Z,102873.69
2022-10-19T04:41:40.147Z,102868.44
2022-10-19T04:44:06.704Z,102871.41
2022-10-19T04:46:33.197Z,102869.88
2022-10-19T04:49:00.149Z,102868.13
2022-10-19T04:51:27.231Z,102861.81
2022-10-19T04:53:56.930Z,102858.38
2022-10-19T04:56:26.910Z,102872.81
2022-10-19T04:58:59.952Z,102871.13
2022-10-19T05:01:28.196Z,102865.03
2022-10-19T05:06:23.605Z,102858.94
2022-10-19T05:08:50.461Z,102860.78
2022-10-19T05:11:17.592Z,102860.91
2022-10-19T05:13:44.142Z,102860.06
2022-10-19T05:16:17.742Z,102857.50
2022-10-19T05:18:56.028Z,102851.28
2022-10-19T05:21:22.800Z,102852.00
2022-10-19T05:23:52.621Z,102855.69
2022-10-19T05:26:21.258Z,102858.38
2022-10-19T05:28:56.216Z,102859.22
2022-10-19T05:31:24.448Z,102853.84
2022-10-19T05:33:51.213Z,102861.91
2022-10-19T05:36:26.881Z,102857.50
2022-10-19T05:38:55.750Z,102855.94
2022-10-19T05:41:23.351Z,102863.16
2022-10-19T05:43:55.491Z,102852.41
2022-10-19T05:46:22.638Z,102859.75
2022-10-19T05:48:49.214Z,102852.81
2022-10-19T05:51:18.148Z,102855.63
2022-10-19T05:53:45.198Z,102854.66
2022-10-19T05:56:17.937Z,102849.13
2022-10-19T05:58:44.759Z,102855.63
2022-10-19T06:01:11.715Z,102856.50
2022-10-19T06:03:38.476Z,102861.00
2022-10-19T06:06:06.604Z,102860.28
2022-10-19T06:08:33.350Z,102855.91
2022-10-19T06:11:11.739Z,102857.75
2022-10-19T06:13:39.570Z,102858.72
2022-10-19T06:16:08.097Z,102858.59
2022-10-19T06:18:35.344Z,102856.88
2022-10-19T06:21:07.269Z,102855.19
2022-10-19T06:23:34.810Z,102851.66
2022-10-19T06:26:06.450Z,102860.56
2022-10-19T06:28:33.109Z,102867.63
2022-10-19T06:30:59.811Z,102869.94
2022-10-19T06:33:32.753Z,102858.78
2022-10-19T06:36:13.889Z,102858.38
2022-10-19T06:38:40.837Z,102857.22
2022-10-19T06:41:07.778Z,102858.22
2022-10-19T06:43:35.051Z,102855.53
2022-10-19T06:46:10.374Z,102852.56
2022-10-19T06:48:37.029Z,102860.50
2022-10-19T06:51:07.379Z,102851.06
2022-10-19T06:53:35.049Z,102856.00
2022-10-19T06:56:03.403Z,102844.56
2022-10-19T06:58:31.025Z,102852.78
2022-10-19T07:01:01.273Z,102851.22
2022-10-19T07:03:30.671Z,102849.84
2022-10-19T07:05:59.744Z,102840.06
2022-10-19T07:08:28.506Z,102833.72
2022-10-19T07:10:57.687Z,102835.56
2022-10-19T07:13:24.673Z,102843.63
2022-10-19T07:16:06.842Z,102838.09
2022-10-19T07:18:36.930Z,102841.22
2022-10-19T07:21:06.812Z,102848.03
2022-10-19T07:23:35.624Z,102848.44
2022-10-19T07:26:14.550Z,102841.78
2022-10-19T07:28:42.839Z,102839.09
2022-10-19T07:31:12.063Z,102835.16
2022-10-19T07:33:38.615Z,102839.53
2022-10-19T07:36:08.574Z,102850.59
2022-10-19T07:38:35.713Z,102842.06
2022-10-19T07:41:06.729Z,102847.59
2022-10-19T07:43:33.554Z,102851.13
2022-10-19T07:46:15.208Z,102856.34
2022-10-19T07:48:42.341Z,102850.84
2022-10-19T07:51:10.407Z,102852.53
2022-10-19T07:53:37.440Z,102860.91
2022-10-19T07:56:09.681Z,102853.06
2022-10-19T07:58:37.367Z,102852.78
2022-10-19T08:01:09.865Z,102860.16
2022-10-19T08:04:31.752Z,102864.09
2022-10-19T08:06:24.496Z,102861.94
2022-10-19T08:08:51.349Z,102864.19
2022-10-19T08:11:20.540Z,102864.06
2022-10-19T08:13:47.144Z,102865.03
2022-10-19T08:16:36.572Z,102858.09
2022-10-19T08:19:10.961Z,102858.34
2022-10-19T08:21:40.129Z,102854.06
2022-10-19T08:24:07.473Z,102859.16
2022-10-19T08:26:36.473Z,102853.63
2022-10-19T08:29:05.722Z,102858.00
2022-10-19T08:31:32.661Z,102855.47
2022-10-19T08:33:59.504Z,102853.34
2022-10-19T08:36:26.257Z,102847.31
2022-10-19T08:38:52.653Z,102848.56
2022-10-19T08:41:25.321Z,102846.28
2022-10-19T08:44:09.344Z,102852.25
2022-10-19T08:46:48.557Z,102855.44
2022-10-19T08:49:20.184Z,102847.69
2022-10-19T08:51:51.173Z,102836.44
2022-10-19T08:54:18.200Z,102845.94
2022-10-19T08:56:56.806Z,102844.25
2022-10-19T08:59:51.094Z,102834.88
2022-10-19T09:02:29.878Z,102827.25
2022-10-19T09:05:05.253Z,102822.56
2022-10-19T09:07:45.493Z,102821.38
2022-10-19T09:10:15.599Z,102818.91
2022-10-19T09:12:58.440Z,102807.91
2022-10-19T09:15:46.339Z,102807.88
2022-10-19T09:18:25.385Z,102813.28
2022-10-19T09:21:00.092Z,102806.56
2022-10-19T09:23:35.106Z,102799.25
2022-10-19T09:26:02.130Z,102803.03
2022-10-19T09:28:44.522Z,102801.72
2022-10-19T09:31:19.418Z,102796.03
2022-10-19T09:33:53.066Z,102790.94
2022-10-19T09:36:22.737Z,102781.16
2022-10-19T09:38:54.161Z,102774.44
2022-10-19T09:41:23.354Z,102778.81
2022-10-19T09:43:53.680Z,102785.22
2022-10-19T09:46:55.267Z,102785.06
2022-10-19T09:49:45.471Z,102781.25
2022-10-19T09:52:29.806Z,102789.72
2022-10-19T09:55:02.687Z,102781.63
2022-10-19T09:57:30.498Z,102785.06
2022-10-19T09:59:57.086Z,102783.91
2022-10-19T10:02:33.169Z,102784.09
2022-10-19T10:05:14.077Z,102778.75
2022-10-19T10:07:41.082Z,102791.06
2022-10-19T10:10:19.232Z,102795.63
2022-10-19T10:12:46.650Z,102784.22
2022-10-19T10:15:21.596Z,102792.31
2022-10-19T10:17:49.432Z,102792.88
2022-10-19T10:20:27.812Z,102794.34
2022-10-19T10:22:58.282Z,102797.97
2022-10-19T10:25:27.996Z,102789.56
2022-10-19T10:28:00.870Z,102785.00
2022-10-19T10:30:32.391Z,102789.22
2022-10-19T10:33:08.121Z,102781.94
2022-10-19T10:35:49.721Z,102777.50
2022-10-19T10:38:26.302Z,102772.50
2022-10-19T10:40:56.676Z,102764.72
2022-10-19T10:43:30.587Z,102765.84
2022-10-19T10:46:03.478Z,102758.97
2022-10-19T10:49:01.862Z,102750.81
2022-10-19T10:51:37.593Z,102753.03
2022-10-19T10:54:26.756Z,102744.41
2022-10-19T10:57:03.009Z,102736.53
2022-10-19T10:59:45.752Z,102727.59
2022-10-19T11:05:19.969Z,102731.13
2022-10-19T11:07:50.341Z,102713.91
2022-10-19T11:10:20.888Z,102712.22
2022-10-19T11:12:58.961Z,102709.41
2022-10-19T11:15:48.376Z,102704.31
2022-10-19T11:18:22.293Z,102704.00
2022-10-19T11:21:15.722Z,102693.84
2022-10-19T11:24:05.906Z,102694.16
2022-10-19T11:26:47.342Z,102682.31
2022-10-19T11:29:36.524Z,102664.16
2022-10-19T11:32:09.585Z,102666.09
2022-10-19T11:35:16.429Z,102645.94
2022-10-19T11:37:50.313Z,102650.44
2022-10-19T11:41:17.255Z,102644.53
2022-10-19T11:44:05.597Z,102638.94
2022-10-19T11:46:49.041Z,102641.31
2022-10-19T11:49:34.052Z,102627.13
2022-10-19T11:52:24.245Z,102619.91
2022-10-19T11:54:59.394Z,102630.06
2022-10-19T11:57:32.057Z,102608.97
2022-10-19T12:00:21.128Z,102596.63
2022-10-19T12:03:08.494Z,102601.19
2022-10-19T12:05:54.118Z,102583.44
2022-10-19T12:08:42.762Z,102591.41
2022-10-19T12:11:33.295Z,102581.25
2022-10-19T12:14:04.829Z,102576.38
2022-10-19T12:16:39.507Z,102563.03
2022-10-19T12:19:11.489Z,102561.50
2022-10-19T12:21:41.100Z,102551.53
2022-10-19T12:24:15.885Z,102550.69
2022-10-19T12:26:44.642Z,102555.47
2022-10-19T12:29:19.533Z,102546.50
2022-10-19T12:31:47.689Z,102553.78
2022-10-19T12:34:19.695Z,102547.50
2022-10-19T12:37:07.797Z,102544.13
2022-10-19T12:39:56.144Z,102541.22
2022-10-19T12:42:31.380Z,102530.28
2022-10-19T12:45:25.406Z,102530.25
2022-10-19T12:48:12.930Z,102527.38
2022-10-19T12:50:48.401Z,102531.09
2022-10-19T12:56:16.072Z,102499.81
2022-10-19T12:58:46.716Z,102504.19
2022-10-19T13:01:22.346Z,102502.31
2022-10-19T13:04:08.293Z,102496.03
2022-10-19T13:06:44.850Z,102483.00
2022-10-19T13:09:29.909Z,102479.78
2022-10-19T13:12:22.194Z,102486.56
2022-10-19T13:15:04.981Z,102483.53
2022-10-19T13:17:34.454Z,102476.22
2022-10-19T13:20:13.163Z,102474.38
2022-10-19T13:22:48.784Z,102466.41
2022-10-19T13:25:27.117Z,102457.97
2022-10-19T13:28:07.146Z,102452.34
2022-10-19T13:30:39.551Z,102454.41
2022-10-19T13:33:31.298Z,102446.63
2022-10-19T13:36:00.718Z,102451.00
2022-10-19T13:38:32.237Z,102445.06
2022-10-19T13:41:21.711Z,102449.97
2022-10-19T13:44:18.098Z,102450.00
2022-10-19T13:47:02.806Z,102452.41
2022-10-19T13:49:50.489Z,102451.56
2022-10-19T13:52:26.071Z,102456.47
2022-10-19T13:55:30.217Z,102450.69
2022-10-19T13:58:18.561Z,102447.66
2022-10-19T14:01:11.673Z,102447.66
2022-10-19T14:03:53.094Z,102448.00
2022-10-19T14:06:33.340Z,102450.38
2022-10-19T14:09:27.154Z,102441.28
2022-10-19T14:12:06.250Z,102446.50
2022-10-19T14:14:43.700Z,102441.28
2022-10-19T14:17:16.133Z,102440.56
2022-10-19T14:19:43.900Z,102448.19
2022-10-19T14:22:24.190Z,102446.13
2022-10-19T14:24:50.630Z,102445.59
2022-10-19T14:27:22.938Z,102444.78
2022-10-19T14:29:52.741Z,102439.03
2022-10-19T14:32:26.087Z,102439.03
2022-10-19T14:34:53.796Z,102437.81
2022-10-19T14:37:25.721Z,102429.34
2022-10-19T14:40:01.386Z,102420.25
2022-10-19T14:42:43.421Z,102412.97
2022-10-19T14:45:22.610Z,102412.47
2022-10-19T14:47:59.362Z,102411.13
2022-10-19T14:50:42.668Z,102408.47
2022-10-19T14:53:31.949Z,102403.72
2022-10-19T14:56:04.690Z,102401.31
2022-10-19T14:58:39.391Z,102401.16
2022-10-19T15:01:06.303Z,102393.38
2022-10-19T15:03:33.553Z,102391.22
2022-10-19T15:06:04.196Z,102384.66
2022-10-19T15:08:42.572Z,102385.84
2022-10-19T15:11:23.356Z,102379.09
2022-10-19T15:13:57.868Z,102379.97
2022-10-19T15:16:33.654Z,102367.97
2022-10-19T15:19:14.341Z,102360.00
2022-10-19T15:21:40.768Z,102356.47
2022-10-19T15:24:40.906Z,102346.84
2022-10-19T15:27:21.672Z,102346.31
2022-10-19T15:30:04.067Z,102348.84
2022-10-19T15:32:35.453Z,102343.63
2022-10-19T15:35:30.083Z,102343.47
2022-10-19T15:38:12.221Z,102344.31
2022-10-19T15:40:41.337Z,102336.91
2022-10-19T15:43:36.874Z,102334.34
2022-10-19T15:46:07.341Z,102332.50
2022-10-19T15:48:52.509Z,102329.47
2022-10-19T15:51:33.163Z,102333.88
2022-10-19T15:54:02.245Z,102325.06
2022-10-19T15:56:31.069Z,102320.53
2022-10-19T15:59:00.008Z,102316.28
2022-10-19T16:01:28.730Z,102308.34
2022-10-19T16:03:55.550Z,102289.13
2022-10-19T16:06:25.794Z,102285.91
2022-10-19T16:08:53.896Z,102282.38
2022-10-19T16:11:23.009Z,102288.97
2022-10-19T16:13:49.398Z,102285.22
2022-10-19T16:16:22.538Z,102286.25
2022-10-19T16:18:49.004Z,102277.16
2022-10-19T16:21:15.932Z,102276.31
2022-10-19T16:23:42.424Z,102279.84
2022-10-19T16:26:09.093Z,102284.56
2022-10-19T16:28:35.918Z,102289.59
2022-10-19T16:31:02.322Z,102291.47
2022-10-19T16:33:28.673Z,102288.09
2022-10-19T16:35:55.021Z,102288.44
2022-10-19T16:38:21.424Z,102291.28
2022-10-19T16:40:47.921Z,102289.94
2022-10-19T16:43:14.318Z,102277.81
2022-10-19T16:45:44.608Z,102275.28
2022-10-19T16:48:13.732Z,102273.00
2022-10-19T16:50:40.147Z,102262.03
2022-10-19T16:53:12.593Z,102256.97
2022-10-19T16:55:40.548Z,102256.31
2022-10-19T16:58:06.978Z,102254.44
2022-10-19T17:00:33.556Z,102250.91
2022-10-19T17:02:59.933Z,102248.72
2022-10-19T17:05:26.282Z,102242.63
2022-10-19T17:07:52.617Z,102248.56
2022-10-19T17:10:19.034Z,102244.19
2022-10-19T17:12:45.440Z,102248.38
2022-10-19T17:15:42.493Z,102247.53
2022-10-19T17:17:59.508Z,102241.66
2022-10-19T17:20:25.878Z,102252.66
2022-10-19T17:22:52.223Z,102242.53
2022-10-19T17:25:18.585Z,102237.59
2022-10-19T17:27:44.938Z,102241.31
2022-10-19T17:30:11.355Z,102233.59
2022-10-19T17:32:37.980Z,102233.09
2022-10-19T17:35:04.740Z,102222.59
2022-10-19T17:37:31.102Z,102227.50
2022-10-19T17:39:57.481Z,102227.50
2022-10-19T17:42:23.892Z,102224.13
2022-10-19T17:44:50.276Z,102222.31
2022-10-19T17:47:16.666Z,102227.22
2022-10-19T17:49:43.010Z,102229.41
2022-10-19T17:52:09.366Z,102228.72
2022-10-19T17:54:43.715Z,102230.78
2022-10-19T17:57:20.794Z,102230.41
2022-10-19T17:59:52.953Z,102224.34
2022-10-19T18:02:19.656Z,102230.78
2022-10-19T18:04:46.331Z,102235.34
2022-10-19T18:07:12.686Z,102227.91
2022-10-19T18:09:39.157Z,102236.53
2022-10-19T18:12:07.585Z,102243.59
2022-10-19T18:14:34.267Z,102242.44
2022-10-19T18:17:00.830Z,102250.69
2022-10-19T18:19:27.247Z,102251.19
2022-10-19T18:21:53.660Z,102259.78
2022-10-19T18:24:21.273Z,102263.34
2022-10-19T18:26:50.497Z,102258.63
2022-10-19T18:29:20.313Z,102269.94
2022-10-19T18:31:52.109Z,102261.66
2022-10-19T18:34:21.575Z,102250.34
2022-10-19T18:36:48.854Z,102243.28
2022-10-19T18:39:15.718Z,102235.84
2022-10-19T18:41:42.518Z,102217.31
2022-10-19T18:44:12.889Z,102207.38
2022-10-19T18:46:39.300Z,102197.59
2022-10-19T18:49:08.158Z,102197.41
2022-10-19T18:51:35.477Z,102173.47
2022-10-19T18:54:02.029Z,102192.88
2022-10-19T18:56:29.356Z,102193.69
2022-10-19T18:58:56.856Z,102194.03
2022-10-19T19:01:26.454Z,102190.69
2022-10-19T19:03:55.159Z,102194.22
2022-10-19T19:06:25.009Z,102185.28
2022-10-19T19:08:54.646Z,102172.28
2022-10-19T19:11:23.660Z,102173.13
2022-10-19T19:13:58.650Z,102165.88
2022-10-19T19:16:26.536Z,102160.97
2022-10-19T19:18:54.322Z,102154.56
2022-10-19T19:21:23.097Z,102157.59
2022-10-19T19:23:51.093Z,102160.66
2022-10-19T19:26:19.329Z,102157.25
2022-10-19T19:28:49.039Z,102157.59
2022-10-19T19:31:18.489Z,102146.66
2022-10-19T19:33:45.800Z,102123.56
2022-10-19T19:36:14.757Z,102121.38
2022-10-19T19:38:41.147Z,102107.88
2022-10-19T19:41:10.490Z,102105.00
2022-10-19T19:43:38.486Z,102083.81
2022-10-19T19:46:15.296Z,102072.16
2022-10-19T19:48:44.522Z,102060.91
2022-10-19T19:51:13.409Z,102068.81
2022-10-19T19:53:40.081Z,102062.91
2022-10-19T19:56:08.569Z,102075.22
2022-10-19T19:58:35.069Z,102071.81
2022-10-19T20:01:12.541Z,102056.69
2022-10-19T20:03:40.686Z,102057.34
2022-10-19T20:06:07.350Z,102052.13
2022-10-19T20:08:36.012Z,102060.53
2022-10-19T20:11:06.711Z,102055.16
2022-10-19T20:13:33.510Z,102055.50
2022-10-19T20:16:06.148Z,102047.75
2022-10-19T20:18:32.536Z,102045.72
2022-10-19T20:21:03.247Z,102052.31
2022-10-19T20:23:30.794Z,102046.72
2022-10-19T20:25:57.358Z,102045.38
2022-10-19T20:28:25.044Z,102039.66
2022-10-19T20:31:07.617Z,102025.00
2022-10-19T20:33:36.140Z,102017.09
2022-10-19T20:36:17.634Z,102020.81
2022-10-19T20:38:53.030Z,102018.44
2022-10-19T20:41:21.558Z,102004.63
2022-10-19T20:43:48.335Z,102006.81
2022-10-19T20:46:15.950Z,102010.53
2022-10-19T20:48:42.464Z,102007.84
2022-10-19T20:51:19.366Z,102007.34
2022-10-19T20:53:48.648Z,101996.38
2022-10-19T20:56:17.611Z,102003.94
2022-10-19T20:58:45.054Z,102008.50
2022-10-19T21:01:17.186Z,102012.53
2022-10-19T21:03:52.684Z,102007.66
2022-10-19T21:06:20.665Z,101997.22
2022-10-19T21:08:47.261Z,102004.47
2022-10-19T21:11:16.265Z,102001.25
2022-10-19T21:13:43.105Z,102004.28
2022-10-19T21:16:11.836Z,102001.59
2022-10-19T21:18:38.294Z,102010.34
2022-10-19T21:21:25.485Z,102008.00
2022-10-19T21:23:57.232Z,102006.13
2022-10-19T21:26:30.074Z,102007.84
2022-10-19T21:28:56.919Z,101991.31
2022-10-19T21:31:25.057Z,101996.56
2022-10-19T21:33:51.957Z,101989.31
2022-10-19T21:36:19.459Z,101980.03
2022-10-19T21:38:45.834Z,101987.13
2022-10-19T21:41:15.926Z,101989.13
2022-10-19T21:43:42.784Z,101991.81
2022-10-19T21:46:13.084Z,101987.78
2022-10-19T21:48:39.683Z,101988.47
2022-10-19T21:51:18.190Z,101989.31
2022-10-19T21:53:45.155Z,101985.09
2022-10-19T21:56:11.533Z,101976.84
2022-10-19T21:58:38.022Z,101973.81
2022-10-19T22:01:08.317Z,101973.81
2022-10-19T22:03:34.707Z,101971.94
2022-10-19T22:06:01.106Z,101964.88
2022-10-19T22:08:27.586Z,101963.22
2022-10-19T22:10:53.998Z,101957.31
2022-10-19T22:13:20.337Z,101946.38
2022-10-19T22:15:46.717Z,101943.66
2022-10-19T22:18:13.112Z,101931.06
2022-10-19T22:20:40.209Z,101926.53
2022-10-19T22:23:07.965Z,101934.59
2022-10-19T22:25:35.589Z,101937.97
2022-10-19T22:28:02.429Z,101933.06
2022-10-19T22:30:28.890Z,101932.41
2022-10-19T22:32:55.841Z,101926.84
2022-10-19T22:35:22.350Z,101933.25
2022-10-19T22:37:48.693Z,101925.00
2022-10-19T22:40:15.158Z,101919.78
2022-10-19T22:42:41.538Z,101919.44
2022-10-19T22:45:08.308Z,101913.91
2022-10-19T22:47:34.708Z,101902.63
2022-10-19T22:50:01.116Z,101903.47
2022-10-19T22:52:27.478Z,101903.47
2022-10-19T22:54:54.221Z,101890.84
2022-10-19T22:57:20.553Z,101891.84
2022-10-19T22:59:46.895Z,101877.88
2022-10-19T23:02:13.255Z,101877.22
2022-10-19T23:04:39.626Z,101874.88
2022-10-19T23:07:06.023Z,101872.69
2022-10-19T23:09:32.452Z,101872.31
2022-10-19T23:11:58.829Z,101871.66
2022-10-19T23:14:25.293Z,101864.41
2022-10-19T23:16:51.649Z,101863.41
2022-10-19T23:19:18.061Z,101864.94
2022-10-19T23:21:44.433Z,101847.78
2022-10-19T23:24:10.791Z,101835.16
2022-10-19T23:26:37.333Z,101833.97
2022-10-19T23:29:03.754Z,101830.59
2022-10-19T23:31:30.502Z,101829.09
2022-10-19T23:33:56.913Z,101829.94
2022-10-19T23:36:26.771Z,101825.91
2022-10-19T23:38:54.706Z,101824.38
2022-10-19T23:41:21.358Z,101821.88
2022-10-19T23:43:48.193Z,101828.25
2022-10-19T23:46:14.612Z,101826.22
2022-10-19T23:48:41.838Z,101815.66
2022-10-19T23:51:11.154Z,101804.69
2022-10-19T23:53:41.055Z,101807.56
2022-10-19T23:56:13.586Z,101803.53
2022-10-19T23:58:40.160Z,101798.31
